Time;durP1;ratioP1;P1;durP2;ratioP2;P2;SDS_P1;SDS_P2;PMS_P1;PMS_P2;Temp;Humidity;BMP_temperature;BMP_pressure;BME280_temperature;BME280_humidity;BME280_pressure;Samples;Min_cycle;Max_cycle;Signal;HPM_P1;HPM_P2
2021/12/18 00:01:05;;;;;;;53.40;30.80;;;7.00;99.90;;;;;;5074624;28;20224;-75
2021/12/18 00:03:32;;;;;;;56.37;32.50;;;7.00;99.90;;;;;;5074246;28;20177;-74
2021/12/18 00:05:57;;;;;;;53.23;30.67;;;7.00;99.90;;;;;;5074211;28;20226;-75
2021/12/18 00:08:23;;;;;;;53.53;31.40;;;7.00;99.90;;;;;;5073694;28;20172;-74
2021/12/18 00:10:49;;;;;;;53.57;32.53;;;7.00;99.90;;;;;;5074330;28;20173;-75
2021/12/18 00:13:16;;;;;;;53.60;31.13;;;7.00;99.90;;;;;;5074384;28;20176;-74
2021/12/18 00:15:41;;;;;;;55.60;30.30;;;7.00;99.90;;;;;;5074101;28;20199;-75
2021/12/18 00:18:07;;;;;;;54.40;29.20;;;7.00;99.90;;;;;;5074132;28;20208;-74
2021/12/18 00:20:35;;;;;;;55.60;32.30;;;7.00;99.90;;;;;;5073925;28;20173;-75
2021/12/18 00:23:01;;;;;;;53.23;30.87;;;7.10;99.90;;;;;;5073961;28;20164;-75
2021/12/18 00:25:27;;;;;;;54.87;30.93;;;7.10;99.90;;;;;;5073860;28;20236;-75
2021/12/18 00:27:52;;;;;;;51.90;29.77;;;7.10;99.90;;;;;;5074084;28;20181;-75
2021/12/18 00:30:18;;;;;;;55.40;31.40;;;7.10;99.90;;;;;;5073916;28;20199;-75
2021/12/18 00:32:44;;;;;;;55.10;32.33;;;7.10;99.90;;;;;;5073963;28;20643;-75
2021/12/18 00:35:10;;;;;;;56.43;31.33;;;7.10;99.90;;;;;;5073401;28;20164;-75
2021/12/18 00:37:35;;;;;;;56.90;33.00;;;7.20;99.90;;;;;;5073838;28;20184;-75
2021/12/18 00:40:06;;;;;;;56.47;33.13;;;7.20;99.90;;;;;;5073641;28;20196;-75
2021/12/18 00:45:09;;;;;;;61.53;33.93;;;7.30;99.90;;;;;;5073927;28;20180;-75
2021/12/18 00:47:35;;;;;;;58.10;32.17;;;7.30;99.90;;;;;;5073567;28;20189;-74
2021/12/18 00:50:00;;;;;;;64.70;35.03;;;7.30;99.90;;;;;;5073068;28;20208;-75
2021/12/18 00:52:26;;;;;;;66.67;36.97;;;7.40;99.90;;;;;;5073529;28;20164;-75
2021/12/18 00:54:52;;;;;;;74.63;37.53;;;7.50;99.90;;;;;;5073498;28;20179;-75
2021/12/18 00:57:17;;;;;;;67.50;35.73;;;7.50;99.90;;;;;;5073659;28;20177;-74
2021/12/18 00:59:43;;;;;;;70.50;37.73;;;7.50;99.90;;;;;;5072668;28;20296;-75
2021/12/18 01:02:09;;;;;;;72.17;37.47;;;7.60;99.90;;;;;;5073382;28;20259;-75
2021/12/18 01:04:34;;;;;;;68.80;37.37;;;7.60;99.90;;;;;;5072787;28;20218;-74
2021/12/18 01:07:00;;;;;;;69.90;38.53;;;7.60;99.90;;;;;;5073422;28;20168;-74
2021/12/18 01:12:29;;;;;;;71.63;37.20;;;7.70;99.90;;;;;;5050243;28;20271;-75
2021/12/18 01:25:08;;;;;;;72.80;39.20;;;7.60;99.90;;;;;;5073016;28;20695;-74
2021/12/18 01:27:34;;;;;;;74.43;36.97;;;7.60;99.90;;;;;;5073030;28;20279;-75
2021/12/18 01:30:01;;;;;;;72.27;38.37;;;7.60;99.90;;;;;;5073153;28;20683;-74
2021/12/18 01:32:28;;;;;;;75.43;40.20;;;7.60;99.90;;;;;;5071573;28;20195;-74
2021/12/18 01:34:54;;;;;;;82.37;42.73;;;7.60;99.90;;;;;;5072935;28;20176;-75
2021/12/18 01:37:20;;;;;;;73.30;38.77;;;7.60;99.90;;;;;;5073085;28;20682;-74
2021/12/18 01:39:47;;;;;;;72.13;35.20;;;7.60;99.90;;;;;;5073017;28;20220;-74
2021/12/18 01:45:11;;;;;;;82.83;42.57;;;7.50;99.90;;;;;;5072821;28;20172;-75
2021/12/18 01:53:22;;;;;;;74.17;35.67;;;7.60;99.90;;;;;;5068115;28;20191;-75
2021/12/18 01:55:50;;;;;;;82.80;44.10;;;7.50;99.90;;;;;;5071461;28;20176;-74
2021/12/18 01:58:22;;;;;;;82.27;42.67;;;7.60;99.90;;;;;;5071558;28;20667;-74
2021/12/18 02:00:49;;;;;;;72.33;35.40;;;7.50;99.90;;;;;;5072815;28;20204;-74
2021/12/18 02:03:15;;;;;;;81.47;40.07;;;7.50;99.90;;;;;;5072282;28;20194;-74
2021/12/18 02:05:41;;;;;;;83.13;41.70;;;7.50;99.90;;;;;;5072769;28;20643;-75
2021/12/18 02:08:07;;;;;;;83.23;41.00;;;7.60;99.90;;;;;;5071576;28;20177;-73
2021/12/18 02:10:44;;;;;;;77.57;38.73;;;7.60;99.90;;;;;;5074765;28;20169;-74
2021/12/18 02:21:18;;;;;;;73.80;36.47;;;7.60;99.90;;;;;;5076797;28;20253;-74
2021/12/18 02:23:44;;;;;;;79.90;40.97;;;7.60;99.90;;;;;;5075763;28;20309;-75
2021/12/18 02:26:11;;;;;;;83.20;41.80;;;7.60;99.90;;;;;;5076437;28;20160;-74
2021/12/18 02:28:37;;;;;;;83.07;43.10;;;7.60;99.90;;;;;;5076110;28;20620;-75
2021/12/18 02:31:03;;;;;;;82.17;41.60;;;7.60;99.90;;;;;;5074922;28;20164;-74
2021/12/18 02:33:29;;;;;;;74.63;34.37;;;7.70;99.90;;;;;;5074299;28;20647;-74
2021/12/18 02:35:58;;;;;;;77.20;36.73;;;7.60;99.90;;;;;;5075987;28;20208;-73
2021/12/18 02:38:33;;;;;;;80.10;40.27;;;7.60;99.90;;;;;;5075829;28;20208;-74
2021/12/18 02:43:34;;;;;;;81.17;41.73;;;7.60;99.90;;;;;;5075703;28;20187;-75
2021/12/18 02:46:06;;;;;;;79.03;40.80;;;7.60;99.90;;;;;;5075427;28;20164;-74
2021/12/18 02:48:36;;;;;;;82.60;43.10;;;7.70;99.90;;;;;;5075850;28;20165;-74
2021/12/18 02:51:08;;;;;;;83.10;43.10;;;7.70;99.90;;;;;;5075706;28;20222;-73
2021/12/18 02:53:35;;;;;;;78.87;41.27;;;7.70;99.90;;;;;;5075661;28;20187;-74
2021/12/18 02:56:05;;;;;;;76.60;39.77;;;7.80;99.90;;;;;;5074391;28;20173;-74
2021/12/18 02:58:36;;;;;;;81.03;41.67;;;7.70;99.90;;;;;;5075445;28;20652;-74
2021/12/18 03:01:04;;;;;;;69.00;31.60;;;7.70;99.90;;;;;;5075122;28;20185;-74
2021/12/18 03:03:33;;;;;;;77.87;40.13;;;7.70;99.90;;;;;;5075313;28;20192;-74
2021/12/18 03:20:36;;;;;;;80.13;43.27;;;7.50;99.90;;;;;;5075323;28;20334;-73
2021/12/18 03:25:21;;;;;;;80.90;42.60;;;7.70;99.90;;;;;;5074922;28;20235;-74
2021/12/18 03:27:48;;;;;;;77.47;41.53;;;7.70;99.90;;;;;;5075002;28;20321;-74
2021/12/18 03:30:15;;;;;;;76.97;40.30;;;7.90;99.90;;;;;;5074507;28;20173;-74
2021/12/18 03:32:42;;;;;;;73.23;34.90;;;7.80;99.90;;;;;;5074591;28;20183;-74
2021/12/18 03:35:08;;;;;;;77.67;39.27;;;7.70;99.90;;;;;;5075053;28;20188;-74
2021/12/18 03:37:35;;;;;;;70.27;34.10;;;7.70;99.90;;;;;;5074991;28;20259;-73
2021/12/18 03:40:03;;;;;;;76.20;41.63;;;7.60;99.90;;;;;;5074598;28;20555;-74
2021/12/18 03:42:29;;;;;;;77.00;39.17;;;7.70;99.90;;;;;;5074689;28;20188;-73
2021/12/18 03:44:54;;;;;;;70.00;35.43;;;7.70;99.90;;;;;;5074106;28;20651;-74
2021/12/18 03:47:20;;;;;;;68.30;36.53;;;7.60;99.90;;;;;;5074609;28;20181;-74
2021/12/18 03:49:46;;;;;;;72.63;38.20;;;7.60;99.90;;;;;;5074906;28;20169;-74
2021/12/18 03:52:11;;;;;;;64.17;30.93;;;7.60;99.90;;;;;;5074835;28;20165;-75
2021/12/18 03:54:37;;;;;;;61.33;30.47;;;7.50;99.90;;;;;;5073224;28;20631;-73
2021/12/18 03:57:03;;;;;;;68.20;34.33;;;7.50;99.90;;;;;;5074359;28;20171;-73
2021/12/18 03:59:29;;;;;;;60.80;29.37;;;7.40;99.90;;;;;;5073914;28;20718;-74
2021/12/18 04:01:54;;;;;;;61.87;29.17;;;7.40;99.90;;;;;;5074338;28;20528;-74
2021/12/18 04:04:20;;;;;;;64.67;33.00;;;7.50;99.90;;;;;;5074395;28;20226;-74
2021/12/18 04:06:46;;;;;;;60.67;33.23;;;7.50;99.90;;;;;;5074679;28;20241;-74
2021/12/18 04:09:12;;;;;;;60.57;32.57;;;7.50;99.90;;;;;;5073067;28;20172;-74
2021/12/18 04:11:39;;;;;;;60.97;30.07;;;7.50;99.90;;;;;;5074241;28;20234;-74
2021/12/18 04:14:05;;;;;;;59.43;31.37;;;7.60;99.90;;;;;;5073236;28;20482;-74
2021/12/18 04:16:31;;;;;;;63.27;33.80;;;7.50;99.90;;;;;;5073883;28;20180;-74
2021/12/18 04:18:57;;;;;;;59.57;30.93;;;7.50;99.90;;;;;;5073787;28;20232;-73
2021/12/18 04:21:23;;;;;;;58.17;28.77;;;7.60;99.90;;;;;;5073928;28;20215;-74
2021/12/18 04:23:48;;;;;;;45.67;23.83;;;7.50;99.90;;;;;;5073742;28;20226;-74
2021/12/18 04:26:14;;;;;;;53.87;27.10;;;7.50;99.90;;;;;;5073784;28;20173;-74
2021/12/18 04:28:40;;;;;;;60.20;31.00;;;7.50;99.90;;;;;;5072048;28;20180;-74
2021/12/18 04:31:05;;;;;;;55.87;31.60;;;7.50;99.90;;;;;;5073774;28;20180;-74
2021/12/18 04:33:31;;;;;;;64.13;31.07;;;7.40;99.90;;;;;;5073641;28;20172;-74
2021/12/18 04:35:57;;;;;;;61.70;32.53;;;7.40;99.90;;;;;;5073706;28;20183;-74
2021/12/18 04:38:22;;;;;;;58.13;30.63;;;7.50;99.90;;;;;;5073491;28;20200;-75
2021/12/18 04:40:49;;;;;;;55.83;29.40;;;7.60;99.90;;;;;;5073033;28;20193;-74
2021/12/18 04:43:15;;;;;;;53.83;28.43;;;7.60;99.90;;;;;;5073040;28;20254;-74
2021/12/18 04:45:41;;;;;;;56.17;31.40;;;7.60;99.90;;;;;;5073409;28;20623;-73
2021/12/18 04:48:06;;;;;;;55.43;29.37;;;7.70;99.90;;;;;;5073207;28;20660;-74
2021/12/18 04:50:32;;;;;;;58.43;29.90;;;7.70;99.90;;;;;;5073464;28;20164;-74
2021/12/18 04:52:57;;;;;;;56.80;30.13;;;7.60;99.90;;;;;;5073448;28;20199;-73
2021/12/18 04:55:23;;;;;;;58.73;30.10;;;7.70;99.90;;;;;;5073039;28;20185;-74
2021/12/18 04:57:51;;;;;;;61.93;32.77;;;7.70;99.90;;;;;;5072580;28;20168;-75
2021/12/18 05:00:19;;;;;;;68.40;35.53;;;7.50;99.90;;;;;;5072109;28;20222;-74
2021/12/18 05:02:47;;;;;;;65.23;29.13;;;7.50;99.90;;;;;;5073290;28;20203;-74
2021/12/18 05:05:14;;;;;;;64.57;30.83;;;7.60;99.90;;;;;;5072993;28;20163;-74
2021/12/18 05:07:41;;;;;;;74.53;39.00;;;7.40;99.90;;;;;;5072938;28;20169;-75
2021/12/18 05:10:08;;;;;;;73.03;36.03;;;7.40;99.90;;;;;;5072872;28;20164;-74
2021/12/18 05:12:34;;;;;;;74.57;39.27;;;7.50;99.90;;;;;;5072433;28;20189;-73
2021/12/18 05:14:59;;;;;;;70.53;35.97;;;7.50;99.90;;;;;;5073044;28;20176;-75
2021/12/18 05:17:26;;;;;;;76.40;38.53;;;7.50;99.90;;;;;;5072944;28;20620;-74
2021/12/18 05:19:52;;;;;;;72.40;35.20;;;7.60;99.90;;;;;;5072624;28;20216;-74
2021/12/18 05:22:17;;;;;;;80.73;37.23;;;7.50;99.90;;;;;;5072926;28;20160;-74
2021/12/18 05:24:43;;;;;;;75.83;37.03;;;7.50;99.90;;;;;;5072404;28;20225;-74
2021/12/18 05:27:08;;;;;;;75.67;37.60;;;7.50;99.90;;;;;;5072231;28;20670;-74
2021/12/18 05:29:34;;;;;;;79.53;37.77;;;7.50;99.90;;;;;;5072749;28;20248;-74
2021/12/18 05:31:59;;;;;;;76.03;38.47;;;7.50;99.90;;;;;;5072961;28;20191;-74
2021/12/18 05:34:32;;;;;;;73.70;36.47;;;7.50;99.90;;;;;;5072463;28;20202;-74
2021/12/18 05:39:25;;;;;;;68.30;30.40;;;7.50;99.90;;;;;;5072667;28;20216;-74
2021/12/18 05:41:51;;;;;;;73.80;33.73;;;7.50;99.90;;;;;;5072214;28;20161;-73
2021/12/18 05:44:22;;;;;;;65.07;27.33;;;7.50;99.90;;;;;;5073275;28;20181;-74
2021/12/18 05:46:48;;;;;;;79.17;37.40;;;7.40;99.90;;;;;;5079168;28;20661;-74
2021/12/18 05:49:14;;;;;;;82.10;37.63;;;7.40;99.90;;;;;;5078809;28;20234;-74
2021/12/18 05:51:40;;;;;;;71.63;33.23;;;7.40;99.90;;;;;;5077983;28;20624;-74
2021/12/18 05:54:06;;;;;;;80.60;35.03;;;7.40;99.90;;;;;;5078956;28;20164;-74
2021/12/18 05:56:32;;;;;;;85.77;38.73;;;7.40;99.90;;;;;;5079021;28;20640;-74
2021/12/18 05:58:59;;;;;;;85.90;36.33;;;7.40;99.90;;;;;;5078645;28;20261;-73
2021/12/18 06:01:25;;;;;;;85.07;39.03;;;7.40;99.90;;;;;;5078939;28;20164;-73
2021/12/18 06:03:51;;;;;;;85.97;38.13;;;7.40;99.90;;;;;;5078748;28;20195;-73
2021/12/18 06:06:17;;;;;;;84.60;38.40;;;7.40;99.90;;;;;;5078818;28;20211;-74
2021/12/18 06:08:42;;;;;;;80.63;36.37;;;7.40;99.90;;;;;;5078205;28;20212;-74
2021/12/18 06:11:14;;;;;;;85.37;37.90;;;7.50;99.90;;;;;;5078998;28;20169;-74
2021/12/18 06:13:45;;;;;;;92.17;39.43;;;7.50;99.90;;;;;;5078794;28;20253;-74
2021/12/18 06:16:12;;;;;;;71.93;29.57;;;7.40;99.90;;;;;;5079099;28;20688;-74
2021/12/18 06:18:46;;;;;;;84.27;31.43;;;7.50;99.90;;;;;;5078710;28;20301;-73
2021/12/18 06:21:13;;;;;;;88.57;37.10;;;7.40;99.90;;;;;;5078637;28;20168;-74
2021/12/18 06:23:47;;;;;;;93.93;40.23;;;7.40;99.90;;;;;;5078172;28;20647;-74
2021/12/18 06:26:13;;;;;;;95.13;38.00;;;7.40;99.90;;;;;;5077903;28;20176;-73
2021/12/18 06:28:39;;;;;;;93.43;40.77;;;7.40;99.90;;;;;;5078852;28;20620;-73
2021/12/18 06:31:05;;;;;;;102.93;42.10;;;7.40;99.90;;;;;;5078700;28;20255;-74
2021/12/18 06:33:31;;;;;;;97.03;41.73;;;7.50;99.90;;;;;;5078783;28;20179;-73
2021/12/18 06:35:57;;;;;;;96.27;39.23;;;7.50;99.90;;;;;;5078610;28;20504;-73
2021/12/18 06:38:24;;;;;;;83.57;31.73;;;7.50;99.90;;;;;;5078308;28;20311;-73
2021/12/18 06:40:50;;;;;;;96.13;40.80;;;7.50;99.90;;;;;;5078640;28;20208;-73
2021/12/18 06:43:16;;;;;;;92.93;37.43;;;7.60;99.90;;;;;;5078401;28;20184;-73
2021/12/18 06:45:42;;;;;;;76.50;32.20;;;7.50;99.90;;;;;;5078758;28;20585;-74
2021/12/18 06:48:08;;;;;;;93.53;38.73;;;7.40;99.90;;;;;;5078560;28;20176;-73
2021/12/18 06:50:35;;;;;;;88.53;36.27;;;7.40;99.90;;;;;;5078248;28;20675;-74
2021/12/18 06:53:01;;;;;;;97.77;39.60;;;7.40;99.90;;;;;;5078346;28;20234;-73
2021/12/18 06:55:27;;;;;;;93.00;38.30;;;7.40;99.90;;;;;;5078242;28;20191;-73
2021/12/18 06:57:53;;;;;;;93.20;38.77;;;7.50;99.90;;;;;;5073772;28;20169;-73
2021/12/18 07:00:20;;;;;;;95.17;36.27;;;7.50;99.90;;;;;;5075236;28;20201;-73
2021/12/18 07:02:47;;;;;;;92.87;39.10;;;7.40;99.90;;;;;;5075400;28;20169;-74
2021/12/18 07:05:12;;;;;;;89.10;36.20;;;7.30;99.90;;;;;;5074977;28;20177;-74
2021/12/18 07:07:38;;;;;;;86.37;36.80;;;7.50;99.90;;;;;;5074950;28;20314;-74
2021/12/18 07:10:06;;;;;;;78.97;33.37;;;7.50;99.90;;;;;;5075214;28;20203;-74
2021/12/18 07:12:32;;;;;;;76.33;29.53;;;7.50;99.90;;;;;;5074880;28;20161;-73
2021/12/18 07:14:58;;;;;;;77.90;35.07;;;7.40;99.90;;;;;;5074608;28;20619;-74
2021/12/18 07:17:23;;;;;;;88.80;36.50;;;7.40;99.90;;;;;;5075194;28;20169;-74
2021/12/18 07:19:49;;;;;;;89.80;37.03;;;7.30;99.90;;;;;;5075124;28;20651;-73
2021/12/18 07:22:15;;;;;;;86.97;36.73;;;7.30;99.90;;;;;;5074056;28;20168;-74
2021/12/18 07:24:40;;;;;;;87.07;37.97;;;7.40;99.90;;;;;;5074593;28;20231;-74
2021/12/18 07:27:06;;;;;;;83.23;36.50;;;7.50;99.90;;;;;;5074599;28;20229;-74
2021/12/18 07:29:32;;;;;;;83.17;34.63;;;7.60;99.90;;;;;;5073460;28;20203;-74
2021/12/18 07:31:57;;;;;;;91.80;39.23;;;7.60;99.90;;;;;;5075001;28;20301;-74
2021/12/18 07:34:23;;;;;;;99.07;40.70;;;7.50;99.90;;;;;;5074218;28;20169;-74
2021/12/18 07:36:49;;;;;;;92.50;38.13;;;7.60;99.90;;;;;;5074355;28;20497;-74
2021/12/18 07:39:15;;;;;;;93.07;37.27;;;7.50;99.90;;;;;;5074522;28;20208;-74
2021/12/18 07:41:41;;;;;;;89.03;37.37;;;7.60;99.90;;;;;;5074633;28;20179;-74
2021/12/18 07:44:07;;;;;;;103.10;40.97;;;7.50;99.90;;;;;;5073830;28;20180;-73
2021/12/18 07:46:34;;;;;;;93.03;38.53;;;7.50;99.90;;;;;;5074090;28;20215;-74
2021/12/18 07:49:00;;;;;;;96.40;38.47;;;7.50;99.90;;;;;;5073694;28;20168;-73
2021/12/18 07:51:26;;;;;;;95.03;39.23;;;7.50;99.90;;;;;;5072853;28;20192;-74
2021/12/18 07:53:52;;;;;;;77.93;33.10;;;7.50;99.90;;;;;;5073805;28;20196;-73
2021/12/18 07:56:19;;;;;;;95.27;38.80;;;7.50;99.90;;;;;;5074244;28;20671;-73
2021/12/18 07:58:45;;;;;;;101.83;39.90;;;7.50;99.90;;;;;;5073643;28;20200;-73
2021/12/18 08:01:11;;;;;;;107.40;41.07;;;7.40;99.90;;;;;;5074210;28;20195;-73
2021/12/18 08:03:37;;;;;;;102.03;40.07;;;7.50;99.90;;;;;;5073749;28;20487;-73
2021/12/18 08:06:03;;;;;;;91.97;40.17;;;7.40;99.90;;;;;;5073854;28;20647;-74
2021/12/18 08:08:28;;;;;;;102.00;42.67;;;7.50;99.90;;;;;;5072587;28;20616;-74
2021/12/18 08:10:56;;;;;;;103.20;39.93;;;7.50;99.90;;;;;;5074132;28;20168;-73
2021/12/18 08:13:21;;;;;;;102.37;41.63;;;7.50;99.90;;;;;;5073821;28;20184;-74
2021/12/18 08:15:47;;;;;;;118.50;45.60;;;7.50;99.90;;;;;;5073064;28;20697;-74
2021/12/18 08:18:13;;;;;;;113.83;44.23;;;7.60;99.90;;;;;;5073792;28;20602;-74
2021/12/18 08:20:39;;;;;;;112.13;44.43;;;7.70;99.90;;;;;;5073118;28;20180;-74
2021/12/18 08:23:05;;;;;;;92.33;37.70;;;7.70;99.90;;;;;;5073526;28;20200;-73
2021/12/18 08:25:32;;;;;;;80.23;34.90;;;7.70;99.90;;;;;;5072303;28;20228;-74
2021/12/18 08:28:00;;;;;;;85.07;36.03;;;7.60;99.90;;;;;;5073809;28;20221;-73
2021/12/18 08:30:27;;;;;;;89.37;38.10;;;7.50;99.90;;;;;;5073178;28;20620;-73
2021/12/18 08:32:52;;;;;;;96.77;40.20;;;7.50;99.90;;;;;;5073308;28;20518;-74
2021/12/18 08:35:19;;;;;;;99.00;39.70;;;7.50;99.90;;;;;;5072984;28;20165;-74
2021/12/18 08:37:44;;;;;;;96.73;39.20;;;7.50;99.90;;;;;;5073549;28;20160;-73
2021/12/18 08:40:11;;;;;;;99.63;38.13;;;7.50;99.90;;;;;;5071990;28;20679;-73
2021/12/18 08:42:37;;;;;;;92.63;34.57;;;7.50;99.90;;;;;;5073212;28;20251;-74
2021/12/18 08:45:04;;;;;;;106.27;39.77;;;7.50;99.90;;;;;;5073096;28;20235;-74
2021/12/18 08:47:30;;;;;;;91.03;32.73;;;7.60;99.90;;;;;;5072845;28;20165;-74
2021/12/18 08:49:55;;;;;;;72.20;26.47;;;7.50;99.90;;;;;;5072585;28;20173;-74
2021/12/18 08:52:21;;;;;;;94.60;33.37;;;7.50;99.90;;;;;;5073127;28;20198;-75
2021/12/18 08:54:47;;;;;;;89.27;30.30;;;7.50;99.90;;;;;;5072073;28;20177;-73
2021/12/18 08:57:13;;;;;;;100.87;34.33;;;7.50;99.90;;;;;;5073261;28;20172;-74
2021/12/18 08:59:39;;;;;;;81.33;28.47;;;7.60;99.90;;;;;;5072384;28;20683;-73
2021/12/18 09:02:07;;;;;;;79.90;28.80;;;7.50;99.90;;;;;;5072840;28;20169;-74
2021/12/18 09:04:33;;;;;;;86.63;33.47;;;7.50;99.90;;;;;;5072799;28;20176;-73
2021/12/18 09:06:59;;;;;;;95.27;33.10;;;7.50;99.90;;;;;;5072799;28;20181;-73
2021/12/18 09:09:24;;;;;;;81.03;30.60;;;7.60;99.90;;;;;;5072442;28;20191;-74
2021/12/18 09:11:50;;;;;;;77.63;28.87;;;7.70;99.90;;;;;;5072505;28;20172;-74
2021/12/18 09:14:17;;;;;;;81.13;31.13;;;7.60;99.90;;;;;;5072337;28;20169;-73
2021/12/18 09:16:43;;;;;;;93.37;32.70;;;7.60;99.90;;;;;;5072791;28;20204;-74
2021/12/18 09:19:08;;;;;;;95.83;33.77;;;7.70;99.90;;;;;;5072069;28;20240;-73
2021/12/18 09:21:34;;;;;;;85.63;32.30;;;7.70;99.90;;;;;;5072409;28;20171;-74
2021/12/18 09:23:59;;;;;;;80.27;30.10;;;7.80;99.90;;;;;;5072419;28;20227;-75
2021/12/18 09:26:25;;;;;;;85.73;31.80;;;7.90;99.90;;;;;;5072600;28;20590;-74
2021/12/18 09:28:51;;;;;;;80.60;30.67;;;7.70;99.90;;;;;;5072798;28;20165;-75
2021/12/18 09:31:17;;;;;;;81.50;31.20;;;7.80;99.90;;;;;;5072278;28;20172;-74
2021/12/18 09:33:42;;;;;;;85.00;31.30;;;7.80;99.90;;;;;;5072421;28;20173;-74
2021/12/18 09:36:08;;;;;;;79.00;28.73;;;7.80;99.90;;;;;;5072899;28;20916;-74
2021/12/18 09:38:34;;;;;;;87.63;31.63;;;7.80;99.90;;;;;;5072400;28;20219;-74
2021/12/18 09:41:01;;;;;;;79.30;31.57;;;7.70;99.90;;;;;;5072464;28;20164;-74
2021/12/18 09:43:28;;;;;;;61.50;24.70;;;7.80;99.90;;;;;;5072195;28;20653;-74
2021/12/18 09:45:54;;;;;;;67.20;24.97;;;7.80;99.90;;;;;;5072055;28;20247;-74
2021/12/18 09:48:21;;;;;;;63.17;23.47;;;7.70;99.90;;;;;;5071929;28;20322;-74
2021/12/18 09:50:55;;;;;;;51.13;20.60;;;7.80;99.90;;;;;;5071972;28;20195;-74
2021/12/18 09:53:21;;;;;;;51.50;21.83;;;7.80;99.90;;;;;;5071672;28;20516;-74
2021/12/18 09:55:46;;;;;;;48.67;20.50;;;7.80;99.90;;;;;;5072701;28;20221;-74
2021/12/18 09:58:12;;;;;;;54.07;21.33;;;7.80;99.90;;;;;;5070528;28;20172;-74
2021/12/18 10:00:37;;;;;;;45.80;18.93;;;7.70;99.90;;;;;;5072177;28;20242;-73
2021/12/18 10:03:03;;;;;;;48.70;20.33;;;7.60;99.90;;;;;;5072460;28;20632;-74
2021/12/18 10:05:31;;;;;;;48.97;18.97;;;7.60;99.90;;;;;;5071917;28;20242;-74
2021/12/18 10:08:06;;;;;;;49.13;20.70;;;7.60;99.90;;;;;;5072238;28;20181;-74
2021/12/18 10:10:33;;;;;;;52.13;20.20;;;7.70;99.90;;;;;;5070451;28;20169;-74
2021/12/18 10:13:09;;;;;;;51.70;20.10;;;7.70;99.90;;;;;;5071861;28;20172;-74
2021/12/18 10:15:37;;;;;;;57.07;22.27;;;7.60;99.90;;;;;;5071283;28;20218;-75
2021/12/18 10:18:08;;;;;;;53.43;22.47;;;7.60;99.90;;;;;;5072391;28;20168;-74
2021/12/18 10:20:34;;;;;;;49.87;22.40;;;7.60;99.90;;;;;;5071828;28;20193;-74
2021/12/18 10:23:05;;;;;;;55.93;21.80;;;7.60;99.90;;;;;;5070740;28;20206;-75
2021/12/18 10:25:40;;;;;;;51.73;21.33;;;7.60;99.90;;;;;;5070705;28;20302;-75
2021/12/18 10:28:17;;;;;;;51.83;21.30;;;7.60;99.90;;;;;;5071806;28;20280;-74
2021/12/18 10:30:49;;;;;;;58.67;21.83;;;7.60;99.90;;;;;;5072338;28;20165;-74
2021/12/18 10:33:15;;;;;;;55.10;21.43;;;7.60;99.90;;;;;;5075812;28;20180;-75
2021/12/18 10:35:52;;;;;;;67.40;24.37;;;7.50;99.90;;;;;;5075806;28;20183;-75
2021/12/18 10:38:49;;;;;;;66.37;26.73;;;7.50;99.90;;;;;;5075631;28;20168;-75
2021/12/18 10:41:35;;;;;;;55.77;22.50;;;7.60;99.90;;;;;;5074053;28;20173;-75
2021/12/18 10:44:07;;;;;;;65.70;26.73;;;7.60;99.90;;;;;;5073255;28;20259;-74
2021/12/18 10:46:34;;;;;;;65.23;25.60;;;7.60;99.90;;;;;;5075816;28;20177;-75
2021/12/18 10:49:07;;;;;;;63.27;24.90;;;7.70;99.90;;;;;;5075665;28;20204;-74
2021/12/18 10:51:34;;;;;;;69.87;26.50;;;7.60;99.90;;;;;;5075643;28;20255;-74
2021/12/18 10:54:05;;;;;;;68.60;29.67;;;7.60;99.90;;;;;;5075489;28;20165;-74
2021/12/18 10:56:40;;;;;;;70.50;29.10;;;7.70;99.90;;;;;;5074800;28;20176;-75
2021/12/18 10:59:23;;;;;;;60.73;26.00;;;7.80;99.90;;;;;;5074293;28;20510;-75
2021/12/18 11:01:55;;;;;;;67.60;25.23;;;7.80;99.90;;;;;;5075207;28;20161;-74
2021/12/18 11:04:28;;;;;;;60.80;23.87;;;7.80;99.90;;;;;;5074691;28;20210;-74
2021/12/18 11:06:55;;;;;;;61.00;25.97;;;7.70;99.90;;;;;;5075308;28;20161;-75
2021/12/18 11:09:31;;;;;;;70.57;26.50;;;7.70;99.90;;;;;;5074197;28;20180;-74
2021/12/18 11:14:34;;;;;;;75.67;31.27;;;7.70;99.90;;;;;;5074518;28;20185;-74
2021/12/18 11:17:05;;;;;;;76.80;30.57;;;7.90;99.90;;;;;;5075124;28;20196;-75
2021/12/18 11:19:32;;;;;;;68.33;27.93;;;7.80;99.90;;;;;;5074526;28;20299;-74
2021/12/18 11:22:00;;;;;;;77.20;30.03;;;7.80;99.90;;;;;;5075101;28;20295;-74
2021/12/18 11:24:47;;;;;;;79.47;31.33;;;7.90;99.90;;;;;;5074801;28;20224;-74
2021/12/18 11:27:17;;;;;;;77.23;31.90;;;7.90;99.90;;;;;;5074491;28;20168;-74
2021/12/18 11:29:51;;;;;;;82.20;33.63;;;7.90;99.90;;;;;;5074284;28;20181;-74
2021/12/18 11:32:26;;;;;;;91.03;34.90;;;8.00;99.90;;;;;;5074597;28;20187;-75
2021/12/18 11:34:56;;;;;;;78.43;32.17;;;8.10;99.90;;;;;;5074647;28;20204;-75
2021/12/18 11:37:25;;;;;;;80.10;32.90;;;7.90;99.90;;;;;;5074929;28;20172;-74
2021/12/18 11:39:57;;;;;;;74.23;29.77;;;8.10;99.90;;;;;;5074469;28;20205;-75
2021/12/18 11:42:29;;;;;;;56.60;24.90;;;8.10;99.90;;;;;;5072794;28;20176;-73
2021/12/18 11:44:56;;;;;;;61.30;26.47;;;7.90;99.90;;;;;;5074537;28;20169;-74
2021/12/18 11:47:30;;;;;;;61.43;26.20;;;8.00;99.90;;;;;;5074492;28;20326;-74
2021/12/18 11:50:18;;;;;;;57.67;24.37;;;8.00;99.90;;;;;;5073453;28;20177;-74
2021/12/18 11:52:52;;;;;;;53.07;24.37;;;8.00;99.90;;;;;;5073117;28;20181;-73
2021/12/18 11:55:18;;;;;;;54.17;23.87;;;8.10;99.90;;;;;;5072946;28;20172;-73
2021/12/18 11:57:48;;;;;;;53.63;23.10;;;8.10;99.90;;;;;;5073412;28;20237;-74
2021/12/18 12:00:23;;;;;;;56.40;26.60;;;8.10;99.90;;;;;;5073934;28;20297;-74
2021/12/18 12:02:54;;;;;;;61.07;26.60;;;8.10;99.90;;;;;;5073869;28;20287;-73
2021/12/18 12:05:40;;;;;;;61.40;26.63;;;8.20;99.90;;;;;;5073856;28;20593;-74
2021/12/18 12:08:26;;;;;;;60.07;27.13;;;8.30;99.90;;;;;;5059172;28;20638;-75
2021/12/18 12:11:15;;;;;;;54.13;24.87;;;8.30;99.90;;;;;;5073748;28;20169;-74
2021/12/18 12:13:56;;;;;;;51.57;22.63;;;8.40;99.90;;;;;;5073570;28;20181;-74
2021/12/18 12:16:40;;;;;;;50.70;21.83;;;8.50;99.90;;;;;;5073955;28;20195;-74
2021/12/18 12:19:06;;;;;;;42.17;19.97;;;8.40;99.90;;;;;;5073052;28;20212;-75
2021/12/18 12:21:48;;;;;;;43.70;19.50;;;8.40;99.90;;;;;;5073529;28;20729;-73
2021/12/18 12:24:17;;;;;;;42.33;18.13;;;8.40;99.90;;;;;;5072027;28;20222;-75
2021/12/18 12:26:43;;;;;;;45.00;19.50;;;8.30;99.90;;;;;;5072982;28;20247;-74
2021/12/18 12:29:11;;;;;;;44.00;19.13;;;8.20;99.90;;;;;;5071687;28;20654;-73
2021/12/18 12:31:51;;;;;;;41.63;18.20;;;8.30;99.90;;;;;;5072152;28;20575;-74
2021/12/18 12:34:21;;;;;;;49.03;21.50;;;8.20;99.90;;;;;;5071878;28;20172;-74
2021/12/18 12:36:48;;;;;;;46.53;19.90;;;8.20;99.90;;;;;;5073880;28;20173;-73
2021/12/18 12:39:15;;;;;;;55.77;23.30;;;8.30;99.90;;;;;;5071905;28;20218;-74
2021/12/18 12:41:47;;;;;;;53.63;22.97;;;8.20;99.90;;;;;;5071308;28;20508;-75
2021/12/18 12:44:23;;;;;;;58.37;22.27;;;8.30;99.90;;;;;;5073013;28;20573;-74
2021/12/18 12:47:09;;;;;;;52.90;22.40;;;8.30;99.90;;;;;;5073213;28;20172;-75
2021/12/18 12:49:34;;;;;;;62.40;25.03;;;8.20;99.90;;;;;;5072768;28;20177;-75
2021/12/18 12:52:00;;;;;;;67.83;25.50;;;8.30;99.90;;;;;;5073118;28;20168;-75
2021/12/18 12:54:41;;;;;;;63.43;24.90;;;8.30;99.90;;;;;;5071985;28;20567;-75
2021/12/18 12:57:25;;;;;;;62.60;23.10;;;8.30;99.90;;;;;;5072574;28;20176;-74
2021/12/18 13:00:11;;;;;;;75.60;26.53;;;8.10;99.90;;;;;;5072195;28;20251;-75
2021/12/18 13:03:01;;;;;;;72.23;26.60;;;8.10;99.90;;;;;;5071316;28;20172;-74
2021/12/18 13:05:29;;;;;;;74.87;26.63;;;8.10;99.90;;;;;;5072457;28;20168;-73
2021/12/18 13:08:00;;;;;;;78.63;28.00;;;8.00;99.90;;;;;;5071892;28;20287;-74
2021/12/18 13:10:35;;;;;;;81.37;28.10;;;8.10;99.90;;;;;;5072384;28;20240;-74
2021/12/18 13:13:10;;;;;;;71.70;25.10;;;8.20;99.90;;;;;;5071001;28;20180;-74
2021/12/18 13:16:11;;;;;;;65.80;23.13;;;8.20;99.90;;;;;;5072902;28;20218;-74
2021/12/18 13:19:04;;;;;;;58.13;21.07;;;8.20;99.90;;;;;;5072194;28;20211;-74
2021/12/18 13:21:32;;;;;;;47.17;19.17;;;8.10;99.90;;;;;;5072734;28;20234;-75
2021/12/18 13:24:06;;;;;;;55.10;19.93;;;8.10;99.90;;;;;;5071544;28;20566;-74
2021/12/18 13:26:44;;;;;;;46.10;19.57;;;8.10;99.90;;;;;;5072547;28;20191;-74
2021/12/18 13:29:14;;;;;;;49.40;20.27;;;8.10;99.90;;;;;;5073118;28;20176;-74
2021/12/18 13:31:49;;;;;;;49.33;18.27;;;8.10;99.90;;;;;;5072455;28;20164;-75
2021/12/18 13:34:38;;;;;;;47.17;18.77;;;8.10;99.90;;;;;;5071553;28;20179;-73
2021/12/18 13:37:05;;;;;;;52.30;21.80;;;8.00;99.90;;;;;;5072586;28;20268;-74
2021/12/18 13:39:43;;;;;;;46.30;17.73;;;8.00;99.90;;;;;;5070739;28;20314;-74